sensor_id;sensor_type;location;lat;lon;timestamp;temperature;humidity
46319;DHT22;32042;50.916;2.926;2023-04-24T00:01:28;8.60;99.90
46319;DHT22;32042;50.916;2.926;2023-04-24T00:03:55;8.60;99.90
46319;DHT22;32042;50.916;2.926;2023-04-24T00:06:25;8.60;99.90
46319;DHT22;32042;50.916;2.926;2023-04-24T00:09:01;8.60;99.90
46319;DHT22;32042;50.916;2.926;2023-04-24T00:11:28;8.50;99.90
46319;DHT22;32042;50.916;2.926;2023-04-24T00:13:53;8.50;99.90
46319;DHT22;32042;50.916;2.926;2023-04-24T00:16:19;8.50;99.90
46319;DHT22;32042;50.916;2.926;2023-04-24T00:18:45;8.50;99.90
46319;DHT22;32042;50.916;2.926;2023-04-24T00:21:13;8.60;99.90
46319;DHT22;32042;50.916;2.926;2023-04-24T00:23:39;8.60;99.90
46319;DHT22;32042;50.916;2.926;2023-04-24T00:26:05;8.60;99.90
46319;DHT22;32042;50.916;2.926;2023-04-24T00:28:30;8.50;99.90
46319;DHT22;32042;50.916;2.926;2023-04-24T00:30:56;8.50;99.90
46319;DHT22;32042;50.916;2.926;2023-04-24T00:33:22;8.50;99.90
46319;DHT22;32042;50.916;2.926;2023-04-24T00:35:47;8.50;99.90
46319;DHT22;32042;50.916;2.926;2023-04-24T00:38:13;8.50;99.90
46319;DHT22;32042;50.916;2.926;2023-04-24T00:40:39;8.50;99.90
46319;DHT22;32042;50.916;2.926;2023-04-24T00:43:05;8.50;99.90
46319;DHT22;32042;50.916;2.926;2023-04-24T00:45:31;8.50;99.90
46319;DHT22;32042;50.916;2.926;2023-04-24T00:47:57;8.50;99.90
46319;DHT22;32042;50.916;2.926;2023-04-24T00:50:24;8.40;99.90
46319;DHT22;32042;50.916;2.926;2023-04-24T00:52:50;8.40;99.90
46319;DHT22;32042;50.916;2.926;2023-04-24T00:55:16;8.40;99.90
46319;DHT22;32042;50.916;2.926;2023-04-24T00:57:43;8.40;99.90
46319;DHT22;32042;50.916;2.926;2023-04-24T01:00:10;8.40;99.90
46319;DHT22;32042;50.916;2.926;2023-04-24T01:02:37;8.40;99.90
46319;DHT22;32042;50.916;2.926;2023-04-24T01:05:07;8.40;99.90
46319;DHT22;32042;50.916;2.926;2023-04-24T01:07:34;8.40;99.90
46319;DHT22;32042;50.916;2.926;2023-04-24T01:10:00;8.40;99.90
46319;DHT22;32042;50.916;2.926;2023-04-24T01:12:25;8.40;99.90
46319;DHT22;32042;50.916;2.926;2023-04-24T01:14:51;8.40;99.90
46319;DHT22;32042;50.916;2.926;2023-04-24T01:17:17;8.40;99.90
46319;DHT22;32042;50.916;2.926;2023-04-24T01:19:43;8.40;99.90
46319;DHT22;32042;50.916;2.926;2023-04-24T01:22:13;8.40;99.90
46319;DHT22;32042;50.916;2.926;2023-04-24T01:24:40;8.50;99.90
46319;DHT22;32042;50.916;2.926;2023-04-24T01:27:07;8.60;99.90
46319;DHT22;32042;50.916;2.926;2023-04-24T01:29:33;8.60;99.90
46319;DHT22;32042;50.916;2.926;2023-04-24T01:31:59;8.60;99.90
46319;DHT22;32042;50.916;2.926;2023-04-24T01:34:25;8.60;99.90
46319;DHT22;32042;50.916;2.926;2023-04-24T01:36:51;8.70;99.90
46319;DHT22;32042;50.916;2.926;2023-04-24T01:39:18;8.70;99.90
46319;DHT22;32042;50.916;2.926;2023-04-24T01:41:46;8.70;99.90
46319;DHT22;32042;50.916;2.926;2023-04-24T01:44:12;8.70;99.90
46319;DHT22;32042;50.916;2.926;2023-04-24T01:46:38;8.70;99.90
46319;DHT22;32042;50.916;2.926;2023-04-24T01:49:04;8.70;99.90
46319;DHT22;32042;50.916;2.926;2023-04-24T01:51:30;8.70;99.90
46319;DHT22;32042;50.916;2.926;2023-04-24T01:53:55;8.70;99.90
46319;DHT22;32042;50.916;2.926;2023-04-24T01:56:22;8.70;99.90
46319;DHT22;32042;50.916;2.926;2023-04-24T01:58:52;8.70;99.90
46319;DHT22;32042;50.916;2.926;2023-04-24T02:01:19;8.70;99.90
46319;DHT22;32042;50.916;2.926;2023-04-24T02:03:45;8.70;99.90
46319;DHT22;32042;50.916;2.926;2023-04-24T02:06:11;8.70;99.90
46319;DHT22;32042;50.916;2.926;2023-04-24T02:08:37;8.70;99.90
46319;DHT22;32042;50.916;2.926;2023-04-24T02:11:02;8.70;99.90
46319;DHT22;32042;50.916;2.926;2023-04-24T02:13:28;8.70;99.90
46319;DHT22;32042;50.916;2.926;2023-04-24T02:15:54;8.70;99.90
46319;DHT22;32042;50.916;2.926;2023-04-24T02:18:20;8.70;99.90
46319;DHT22;32042;50.916;2.926;2023-04-24T02:20:46;8.70;99.90
46319;DHT22;32042;50.916;2.926;2023-04-24T02:23:11;8.70;99.90
46319;DHT22;32042;50.916;2.926;2023-04-24T02:25:38;8.60;99.90
46319;DHT22;32042;50.916;2.926;2023-04-24T02:28:04;8.60;99.90
46319;DHT22;32042;50.916;2.926;2023-04-24T02:30:31;8.60;99.90
46319;DHT22;32042;50.916;2.926;2023-04-24T02:32:57;8.60;99.90
46319;DHT22;32042;50.916;2.926;2023-04-24T02:35:24;8.60;99.90
46319;DHT22;32042;50.916;2.926;2023-04-24T02:37:51;8.50;99.90
46319;DHT22;32042;50.916;2.926;2023-04-24T02:40:18;8.50;99.90
46319;DHT22;32042;50.916;2.926;2023-04-24T02:42:44;8.50;99.90
46319;DHT22;32042;50.916;2.926;2023-04-24T02:45:11;8.50;99.90
46319;DHT22;32042;50.916;2.926;2023-04-24T02:47:38;8.50;99.90
46319;DHT22;32042;50.916;2.926;2023-04-24T02:50:05;8.50;99.90
46319;DHT22;32042;50.916;2.926;2023-04-24T02:52:32;8.50;99.90
46319;DHT22;32042;50.916;2.926;2023-04-24T02:54:59;8.50;99.90
46319;DHT22;32042;50.916;2.926;2023-04-24T02:57:24;8.40;99.90
46319;DHT22;32042;50.916;2.926;2023-04-24T02:59:50;8.40;99.90
46319;DHT22;32042;50.916;2.926;2023-04-24T03:02:16;8.40;99.90
46319;DHT22;32042;50.916;2.926;2023-04-24T03:04:41;8.40;99.90
46319;DHT22;32042;50.916;2.926;2023-04-24T03:07:08;8.40;99.90
46319;DHT22;32042;50.916;2.926;2023-04-24T03:09:34;8.40;99.90
46319;DHT22;32042;50.916;2.926;2023-04-24T03:11:59;8.40;99.90
46319;DHT22;32042;50.916;2.926;2023-04-24T03:14:25;8.40;99.90
46319;DHT22;32042;50.916;2.926;2023-04-24T03:16:51;8.40;99.90
46319;DHT22;32042;50.916;2.926;2023-04-24T03:19:17;8.40;99.90
46319;DHT22;32042;50.916;2.926;2023-04-24T03:21:42;8.40;99.90
46319;DHT22;32042;50.916;2.926;2023-04-24T03:24:08;8.40;99.90
46319;DHT22;32042;50.916;2.926;2023-04-24T03:26:35;8.40;99.90
46319;DHT22;32042;50.916;2.926;2023-04-24T03:29:01;8.40;99.90
46319;DHT22;32042;50.916;2.926;2023-04-24T03:31:26;8.40;99.90
46319;DHT22;32042;50.916;2.926;2023-04-24T03:33:52;8.40;99.90
46319;DHT22;32042;50.916;2.926;2023-04-24T03:36:18;8.40;99.90
46319;DHT22;32042;50.916;2.926;2023-04-24T03:38:44;8.40;99.90
46319;DHT22;32042;50.916;2.926;2023-04-24T03:41:11;8.40;99.90
46319;DHT22;32042;50.916;2.926;2023-04-24T03:43:37;8.50;99.90
46319;DHT22;32042;50.916;2.926;2023-04-24T03:46:03;8.40;99.90
46319;DHT22;32042;50.916;2.926;2023-04-24T03:48:29;8.50;99.90
46319;DHT22;32042;50.916;2.926;2023-04-24T03:50:55;8.50;99.90
46319;DHT22;32042;50.916;2.926;2023-04-24T03:53:21;8.50;99.90
46319;DHT22;32042;50.916;2.926;2023-04-24T03:55:47;8.50;99.90
46319;DHT22;32042;50.916;2.926;2023-04-24T03:58:12;8.50;99.90
46319;DHT22;32042;50.916;2.926;2023-04-24T04:00:40;8.50;99.90
46319;DHT22;32042;50.916;2.926;2023-04-24T04:03:06;8.50;99.90
46319;DHT22;32042;50.916;2.926;2023-04-24T04:05:32;8.50;99.90
46319;DHT22;32042;50.916;2.926;2023-04-24T04:07:57;8.50;99.90
46319;DHT22;32042;50.916;2.926;2023-04-24T04:10:23;8.50;99.90
46319;DHT22;32042;50.916;2.926;2023-04-24T04:12:49;8.50;99.90
46319;DHT22;32042;50.916;2.926;2023-04-24T04:15:15;8.40;99.90
46319;DHT22;32042;50.916;2.926;2023-04-24T04:17:40;8.40;99.90
46319;DHT22;32042;50.916;2.926;2023-04-24T04:20:07;8.40;99.90
46319;DHT22;32042;50.916;2.926;2023-04-24T04:22:36;8.40;99.90
46319;DHT22;32042;50.916;2.926;2023-04-24T04:25:02;8.40;99.90
46319;DHT22;32042;50.916;2.926;2023-04-24T04:27:28;8.40;99.90
46319;DHT22;32042;50.916;2.926;2023-04-24T04:29:58;8.30;99.90
46319;DHT22;32042;50.916;2.926;2023-04-24T04:32:25;8.30;99.90
46319;DHT22;32042;50.916;2.926;2023-04-24T04:34:51;8.40;99.90
46319;DHT22;32042;50.916;2.926;2023-04-24T04:37:18;8.40;99.90
46319;DHT22;32042;50.916;2.926;2023-04-24T04:39:44;8.40;99.90
46319;DHT22;32042;50.916;2.926;2023-04-24T04:42:10;8.40;99.90
46319;DHT22;32042;50.916;2.926;2023-04-24T04:44:36;8.40;99.90
46319;DHT22;32042;50.916;2.926;2023-04-24T04:47:02;8.40;99.90
46319;DHT22;32042;50.916;2.926;2023-04-24T04:49:33;8.40;99.90
46319;DHT22;32042;50.916;2.926;2023-04-24T04:52:00;8.40;99.90
46319;DHT22;32042;50.916;2.926;2023-04-24T04:54:25;8.40;99.90
46319;DHT22;32042;50.916;2.926;2023-04-24T04:56:51;8.40;99.90
46319;DHT22;32042;50.916;2.926;2023-04-24T04:59:17;8.40;99.90
46319;DHT22;32042;50.916;2.926;2023-04-24T05:01:43;8.40;99.90
46319;DHT22;32042;50.916;2.926;2023-04-24T05:04:08;8.40;99.90
46319;DHT22;32042;50.916;2.926;2023-04-24T05:06:34;8.40;99.90
46319;DHT22;32042;50.916;2.926;2023-04-24T05:09:00;8.40;99.90
46319;DHT22;32042;50.916;2.926;2023-04-24T05:11:26;8.40;99.90
46319;DHT22;32042;50.916;2.926;2023-04-24T05:13:51;8.40;99.90
46319;DHT22;32042;50.916;2.926;2023-04-24T05:16:17;8.40;99.90
46319;DHT22;32042;50.916;2.926;2023-04-24T05:18:43;8.40;99.90
46319;DHT22;32042;50.916;2.926;2023-04-24T05:21:09;8.40;99.90
46319;DHT22;32042;50.916;2.926;2023-04-24T05:23:34;8.50;99.90
46319;DHT22;32042;50.916;2.926;2023-04-24T05:26:00;8.50;99.90
46319;DHT22;32042;50.916;2.926;2023-04-24T05:28:26;8.50;99.90
46319;DHT22;32042;50.916;2.926;2023-04-24T05:30:55;8.50;99.90
46319;DHT22;32042;50.916;2.926;2023-04-24T05:33:21;8.60;99.90
46319;DHT22;32042;50.916;2.926;2023-04-24T05:35:48;8.60;99.90
46319;DHT22;32042;50.916;2.926;2023-04-24T05:38:14;8.60;99.90
46319;DHT22;32042;50.916;2.926;2023-04-24T05:40:43;8.60;99.90
46319;DHT22;32042;50.916;2.926;2023-04-24T05:43:08;8.60;99.90
46319;DHT22;32042;50.916;2.926;2023-04-24T05:45:34;8.60;99.90
46319;DHT22;32042;50.916;2.926;2023-04-24T05:48:02;8.60;99.90
46319;DHT22;32042;50.916;2.926;2023-04-24T05:50:27;8.60;99.90
46319;DHT22;32042;50.916;2.926;2023-04-24T05:52:53;8.60;99.90
46319;DHT22;32042;50.916;2.926;2023-04-24T05:55:19;8.60;99.90
46319;DHT22;32042;50.916;2.926;2023-04-24T05:57:45;8.60;99.90
46319;DHT22;32042;50.916;2.926;2023-04-24T06:00:12;8.60;99.90
46319;DHT22;32042;50.916;2.926;2023-04-24T06:02:38;8.60;99.90
46319;DHT22;32042;50.916;2.926;2023-04-24T06:05:04;8.60;99.90
46319;DHT22;32042;50.916;2.926;2023-04-24T06:07:31;8.70;99.90
46319;DHT22;32042;50.916;2.926;2023-04-24T06:09:57;8.70;99.90
46319;DHT22;32042;50.916;2.926;2023-04-24T06:12:23;8.70;99.90
46319;DHT22;32042;50.916;2.926;2023-04-24T06:14:48;8.80;99.90
46319;DHT22;32042;50.916;2.926;2023-04-24T06:17:15;8.80;99.90
46319;DHT22;32042;50.916;2.926;2023-04-24T06:19:40;8.80;99.90
46319;DHT22;32042;50.916;2.926;2023-04-24T06:22:06;8.80;99.90
46319;DHT22;32042;50.916;2.926;2023-04-24T06:24:33;8.80;99.90
46319;DHT22;32042;50.916;2.926;2023-04-24T06:26:59;8.80;99.90
46319;DHT22;32042;50.916;2.926;2023-04-24T06:29:27;8.80;99.90
46319;DHT22;32042;50.916;2.926;2023-04-24T06:31:53;8.90;99.90
46319;DHT22;32042;50.916;2.926;2023-04-24T06:34:18;9.00;99.90
46319;DHT22;32042;50.916;2.926;2023-04-24T06:36:44;9.00;99.90
46319;DHT22;32042;50.916;2.926;2023-04-24T06:39:10;9.00;99.90
46319;DHT22;32042;50.916;2.926;2023-04-24T06:41:36;9.00;99.90
46319;DHT22;32042;50.916;2.926;2023-04-24T06:44:01;8.90;99.90
46319;DHT22;32042;50.916;2.926;2023-04-24T06:46:27;8.90;99.90
46319;DHT22;32042;50.916;2.926;2023-04-24T06:48:53;8.90;99.90
46319;DHT22;32042;50.916;2.926;2023-04-24T06:51:25;8.90;99.90
46319;DHT22;32042;50.916;2.926;2023-04-24T06:53:53;8.90;99.90
46319;DHT22;32042;50.916;2.926;2023-04-24T06:56:19;8.90;99.90
46319;DHT22;32042;50.916;2.926;2023-04-24T06:58:45;9.00;99.90
46319;DHT22;32042;50.916;2.926;2023-04-24T07:01:11;9.00;99.90
46319;DHT22;32042;50.916;2.926;2023-04-24T07:03:37;9.10;99.90
46319;DHT22;32042;50.916;2.926;2023-04-24T07:06:04;9.10;99.90
46319;DHT22;32042;50.916;2.926;2023-04-24T07:08:30;9.10;99.90
46319;DHT22;32042;50.916;2.926;2023-04-24T07:10:56;9.00;99.90
46319;DHT22;32042;50.916;2.926;2023-04-24T07:13:23;9.00;99.90
46319;DHT22;32042;50.916;2.926;2023-04-24T07:15:49;9.10;99.90
46319;DHT22;32042;50.916;2.926;2023-04-24T07:18:22;9.20;99.90
46319;DHT22;32042;50.916;2.926;2023-04-24T07:20:48;9.20;99.90
46319;DHT22;32042;50.916;2.926;2023-04-24T07:23:16;9.30;99.90
46319;DHT22;32042;50.916;2.926;2023-04-24T07:25:42;9.50;99.90
46319;DHT22;32042;50.916;2.926;2023-04-24T07:28:08;9.60;99.90
46319;DHT22;32042;50.916;2.926;2023-04-24T07:30:33;9.70;99.90
46319;DHT22;32042;50.916;2.926;2023-04-24T07:33:00;9.70;99.90
46319;DHT22;32042;50.916;2.926;2023-04-24T07:35:26;9.70;99.90
46319;DHT22;32042;50.916;2.926;2023-04-24T07:37:55;9.80;99.90
46319;DHT22;32042;50.916;2.926;2023-04-24T07:40:21;9.80;99.90
46319;DHT22;32042;50.916;2.926;2023-04-24T07:42:47;9.70;99.90
46319;DHT22;32042;50.916;2.926;2023-04-24T07:45:16;9.60;99.90
46319;DHT22;32042;50.916;2.926;2023-04-24T07:47:42;9.50;99.90
46319;DHT22;32042;50.916;2.926;2023-04-24T07:50:11;9.40;99.90
46319;DHT22;32042;50.916;2.926;2023-04-24T07:52:38;9.40;99.90
46319;DHT22;32042;50.916;2.926;2023-04-24T07:55:04;9.40;99.90
46319;DHT22;32042;50.916;2.926;2023-04-24T07:57:30;9.30;99.90
46319;DHT22;32042;50.916;2.926;2023-04-24T07:59:56;9.30;99.90
46319;DHT22;32042;50.916;2.926;2023-04-24T08:02:22;9.30;99.90
46319;DHT22;32042;50.916;2.926;2023-04-24T08:04:52;9.30;99.90
46319;DHT22;32042;50.916;2.926;2023-04-24T08:07:19;9.40;99.90
46319;DHT22;32042;50.916;2.926;2023-04-24T08:09:45;9.30;99.90
46319;DHT22;32042;50.916;2.926;2023-04-24T08:12:11;9.30;99.90
46319;DHT22;32042;50.916;2.926;2023-04-24T08:14:36;9.30;99.90
46319;DHT22;32042;50.916;2.926;2023-04-24T08:17:02;9.30;99.90
46319;DHT22;32042;50.916;2.926;2023-04-24T08:19:29;9.30;99.90
46319;DHT22;32042;50.916;2.926;2023-04-24T08:21:54;9.30;99.90
46319;DHT22;32042;50.916;2.926;2023-04-24T08:24:20;9.30;99.90
46319;DHT22;32042;50.916;2.926;2023-04-24T08:26:46;9.30;99.90
46319;DHT22;32042;50.916;2.926;2023-04-24T08:29:15;9.30;99.90
46319;DHT22;32042;50.916;2.926;2023-04-24T08:31:41;9.30;99.90
46319;DHT22;32042;50.916;2.926;2023-04-24T08:34:07;9.30;99.90
46319;DHT22;32042;50.916;2.926;2023-04-24T08:36:33;9.30;99.90
46319;DHT22;32042;50.916;2.926;2023-04-24T08:38:59;9.30;99.90
46319;DHT22;32042;50.916;2.926;2023-04-24T08:41:25;9.40;99.90
46319;DHT22;32042;50.916;2.926;2023-04-24T08:43:52;9.40;99.90
46319;DHT22;32042;50.916;2.926;2023-04-24T08:46:19;9.40;99.90
46319;DHT22;32042;50.916;2.926;2023-04-24T08:48:45;9.40;99.90
46319;DHT22;32042;50.916;2.926;2023-04-24T08:51:11;9.50;99.90
46319;DHT22;32042;50.916;2.926;2023-04-24T08:53:37;9.50;99.90
46319;DHT22;32042;50.916;2.926;2023-04-24T08:56:04;9.50;99.90
46319;DHT22;32042;50.916;2.926;2023-04-24T08:58:31;9.50;99.90
46319;DHT22;32042;50.916;2.926;2023-04-24T09:00:57;9.50;99.90
46319;DHT22;32042;50.916;2.926;2023-04-24T09:03:24;9.40;99.90
46319;DHT22;32042;50.916;2.926;2023-04-24T09:05:52;9.50;99.90
46319;DHT22;32042;50.916;2.926;2023-04-24T09:08:22;9.60;99.90
46319;DHT22;32042;50.916;2.926;2023-04-24T09:10:49;9.70;99.90
46319;DHT22;32042;50.916;2.926;2023-04-24T09:13:15;9.60;99.90
46319;DHT22;32042;50.916;2.926;2023-04-24T09:15:42;9.70;99.90
46319;DHT22;32042;50.916;2.926;2023-04-24T09:18:07;9.70;99.90
46319;DHT22;32042;50.916;2.926;2023-04-24T09:20:33;9.70;99.90
46319;DHT22;32042;50.916;2.926;2023-04-24T09:23:01;9.70;99.90
46319;DHT22;32042;50.916;2.926;2023-04-24T09:25:34;9.70;99.90
46319;DHT22;32042;50.916;2.926;2023-04-24T09:28:05;9.70;99.90
46319;DHT22;32042;50.916;2.926;2023-04-24T09:30:33;9.70;99.90
46319;DHT22;32042;50.916;2.926;2023-04-24T09:33:15;9.70;99.90
46319;DHT22;32042;50.916;2.926;2023-04-24T09:35:51;9.80;99.90
46319;DHT22;32042;50.916;2.926;2023-04-24T09:38:17;9.80;99.90
46319;DHT22;32042;50.916;2.926;2023-04-24T09:40:43;9.90;99.90
46319;DHT22;32042;50.916;2.926;2023-04-24T09:43:12;10.00;99.90
46319;DHT22;32042;50.916;2.926;2023-04-24T09:45:39;10.10;99.90
46319;DHT22;32042;50.916;2.926;2023-04-24T09:48:05;10.20;99.90
46319;DHT22;32042;50.916;2.926;2023-04-24T09:50:32;10.30;99.90
46319;DHT22;32042;50.916;2.926;2023-04-24T09:53:02;10.40;99.90
46319;DHT22;32042;50.916;2.926;2023-04-24T09:55:28;10.50;99.90
46319;DHT22;32042;50.916;2.926;2023-04-24T09:57:58;10.70;99.90
46319;DHT22;32042;50.916;2.926;2023-04-24T10:00:30;10.80;99.90
46319;DHT22;32042;50.916;2.926;2023-04-24T10:05:30;10.80;99.90
46319;DHT22;32042;50.916;2.926;2023-04-24T10:08:04;10.80;99.90
46319;DHT22;32042;50.916;2.926;2023-04-24T10:10:31;10.80;99.90
46319;DHT22;32042;50.916;2.926;2023-04-24T10:12:58;10.80;99.90
46319;DHT22;32042;50.916;2.926;2023-04-24T10:15:24;10.80;99.90
46319;DHT22;32042;50.916;2.926;2023-04-24T10:17:51;10.80;99.90
46319;DHT22;32042;50.916;2.926;2023-04-24T10:20:28;10.90;99.90
46319;DHT22;32042;50.916;2.926;2023-04-24T10:22:56;11.20;99.90
46319;DHT22;32042;50.916;2.926;2023-04-24T10:25:24;11.30;99.90
46319;DHT22;32042;50.916;2.926;2023-04-24T10:27:52;11.40;99.90
46319;DHT22;32042;50.916;2.926;2023-04-24T10:30:19;11.60;99.90
46319;DHT22;32042;50.916;2.926;2023-04-24T10:32:46;11.60;99.90
46319;DHT22;32042;50.916;2.926;2023-04-24T10:35:13;11.60;99.90
46319;DHT22;32042;50.916;2.926;2023-04-24T10:40:08;11.70;99.90
46319;DHT22;32042;50.916;2.926;2023-04-24T10:42:35;11.90;99.90
46319;DHT22;32042;50.916;2.926;2023-04-24T10:45:06;12.10;99.90
46319;DHT22;32042;50.916;2.926;2023-04-24T10:47:41;12.30;99.90
46319;DHT22;32042;50.916;2.926;2023-04-24T10:50:10;12.20;99.90
46319;DHT22;32042;50.916;2.926;2023-04-24T10:52:49;12.20;99.90
46319;DHT22;32042;50.916;2.926;2023-04-24T10:55:48;12.40;99.90
46319;DHT22;32042;50.916;2.926;2023-04-24T10:58:15;12.30;99.90
46319;DHT22;32042;50.916;2.926;2023-04-24T11:00:43;12.20;99.90
46319;DHT22;32042;50.916;2.926;2023-04-24T11:03:30;12.40;99.90
46319;DHT22;32042;50.916;2.926;2023-04-24T11:06:02;12.50;99.90
46319;DHT22;32042;50.916;2.926;2023-04-24T11:08:39;12.60;99.90
46319;DHT22;32042;50.916;2.926;2023-04-24T11:11:18;12.70;99.90
46319;DHT22;32042;50.916;2.926;2023-04-24T11:16:24;12.70;99.90
46319;DHT22;32042;50.916;2.926;2023-04-24T11:19:01;12.80;99.90
46319;DHT22;32042;50.916;2.926;2023-04-24T11:21:56;12.80;99.90
46319;DHT22;32042;50.916;2.926;2023-04-24T11:26:54;12.80;99.90
46319;DHT22;32042;50.916;2.926;2023-04-24T11:29:20;12.90;99.90
46319;DHT22;32042;50.916;2.926;2023-04-24T11:31:47;12.90;99.90
46319;DHT22;32042;50.916;2.926;2023-04-24T11:34:17;12.90;99.90
46319;DHT22;32042;50.916;2.926;2023-04-24T11:36:47;12.70;99.90
46319;DHT22;32042;50.916;2.926;2023-04-24T11:39:14;12.70;99.90
46319;DHT22;32042;50.916;2.926;2023-04-24T11:41:40;12.60;99.90
46319;DHT22;32042;50.916;2.926;2023-04-24T11:44:07;12.60;99.90
46319;DHT22;32042;50.916;2.926;2023-04-24T11:46:33;12.70;99.90
46319;DHT22;32042;50.916;2.926;2023-04-24T11:48:59;12.70;99.90
46319;DHT22;32042;50.916;2.926;2023-04-24T11:51:26;12.60;99.90
46319;DHT22;32042;50.916;2.926;2023-04-24T11:53:56;12.70;99.90
46319;DHT22;32042;50.916;2.926;2023-04-24T11:56:23;12.80;99.90
46319;DHT22;32042;50.916;2.926;2023-04-24T11:58:51;12.80;99.90
46319;DHT22;32042;50.916;2.926;2023-04-24T12:01:17;12.80;99.90
46319;DHT22;32042;50.916;2.926;2023-04-24T12:03:47;12.70;99.90
46319;DHT22;32042;50.916;2.926;2023-04-24T12:06:13;12.70;99.90
46319;DHT22;32042;50.916;2.926;2023-04-24T12:08:39;12.80;99.90
46319;DHT22;32042;50.916;2.926;2023-04-24T12:11:07;13.00;99.90
46319;DHT22;32042;50.916;2.926;2023-04-24T12:13:33;13.10;99.90
46319;DHT22;32042;50.916;2.926;2023-04-24T12:16:02;12.90;99.90
46319;DHT22;32042;50.916;2.926;2023-04-24T12:18:28;12.80;99.90
46319;DHT22;32042;50.916;2.926;2023-04-24T12:20:54;12.80;99.90
46319;DHT22;32042;50.916;2.926;2023-04-24T12:23:35;12.90;99.90
46319;DHT22;32042;50.916;2.926;2023-04-24T12:26:04;12.90;99.90
46319;DHT22;32042;50.916;2.926;2023-04-24T12:28:37;13.00;99.90
46319;DHT22;32042;50.916;2.926;2023-04-24T12:31:03;12.80;99.90
46319;DHT22;32042;50.916;2.926;2023-04-24T12:33:33;12.80;99.90
46319;DHT22;32042;50.916;2.926;2023-04-24T12:35:59;12.80;99.90
46319;DHT22;32042;50.916;2.926;2023-04-24T12:38:27;12.70;99.90
46319;DHT22;32042;50.916;2.926;2023-04-24T12:41:07;12.70;99.90
46319;DHT22;32042;50.916;2.926;2023-04-24T12:43:33;12.70;99.90
46319;DHT22;32042;50.916;2.926;2023-04-24T12:45:59;12.70;99.90
46319;DHT22;32042;50.916;2.926;2023-04-24T12:48:26;12.70;99.90
46319;DHT22;32042;50.916;2.926;2023-04-24T12:50:52;12.80;99.90
46319;DHT22;32042;50.916;2.926;2023-04-24T12:53:18;12.90;99.90
46319;DHT22;32042;50.916;2.926;2023-04-24T12:55:44;12.90;99.90
46319;DHT22;32042;50.916;2.926;2023-04-24T12:58:10;12.80;99.90
46319;DHT22;32042;50.916;2.926;2023-04-24T13:00:36;12.90;99.90
46319;DHT22;32042;50.916;2.926;2023-04-24T13:03:03;13.00;99.90
46319;DHT22;32042;50.916;2.926;2023-04-24T13:05:29;13.00;99.90
46319;DHT22;32042;50.916;2.926;2023-04-24T13:07:57;13.00;99.90
46319;DHT22;32042;50.916;2.926;2023-04-24T13:10:22;13.20;99.90
46319;DHT22;32042;50.916;2.926;2023-04-24T13:12:48;13.30;99.90
46319;DHT22;32042;50.916;2.926;2023-04-24T13:15:14;13.30;99.90
46319;DHT22;32042;50.916;2.926;2023-04-24T13:17:40;13.50;99.90
46319;DHT22;32042;50.916;2.926;2023-04-24T13:20:06;13.60;99.90
46319;DHT22;32042;50.916;2.926;2023-04-24T13:22:32;13.50;99.90
46319;DHT22;32042;50.916;2.926;2023-04-24T13:24:58;13.50;99.90
46319;DHT22;32042;50.916;2.926;2023-04-24T13:27:25;13.50;99.90
46319;DHT22;32042;50.916;2.926;2023-04-24T13:29:50;13.70;99.90
46319;DHT22;32042;50.916;2.926;2023-04-24T13:32:17;13.80;99.90
46319;DHT22;32042;50.916;2.926;2023-04-24T13:34:43;13.80;99.90
46319;DHT22;32042;50.916;2.926;2023-04-24T13:37:09;13.70;99.90
46319;DHT22;32042;50.916;2.926;2023-04-24T13:39:34;13.40;99.90
46319;DHT22;32042;50.916;2.926;2023-04-24T13:42:00;13.10;99.90
46319;DHT22;32042;50.916;2.926;2023-04-24T13:44:26;13.00;99.90
46319;DHT22;32042;50.916;2.926;2023-04-24T13:46:54;12.90;99.90
46319;DHT22;32042;50.916;2.926;2023-04-24T13:49:22;12.90;99.90
46319;DHT22;32042;50.916;2.926;2023-04-24T13:51:50;12.70;99.90
46319;DHT22;32042;50.916;2.926;2023-04-24T13:54:16;12.60;99.90
46319;DHT22;32042;50.916;2.926;2023-04-24T13:56:42;12.50;99.90
46319;DHT22;32042;50.916;2.926;2023-04-24T13:59:08;12.50;99.90
46319;DHT22;32042;50.916;2.926;2023-04-24T14:01:34;12.50;99.90
46319;DHT22;32042;50.916;2.926;2023-04-24T14:04:00;12.50;99.90
46319;DHT22;32042;50.916;2.926;2023-04-24T14:06:26;12.50;99.90
46319;DHT22;32042;50.916;2.926;2023-04-24T14:08:52;12.40;99.90
46319;DHT22;32042;50.916;2.926;2023-04-24T14:11:18;12.40;99.90
46319;DHT22;32042;50.916;2.926;2023-04-24T14:13:45;12.50;99.90
46319;DHT22;32042;50.916;2.926;2023-04-24T14:16:11;12.40;99.90
46319;DHT22;32042;50.916;2.926;2023-04-24T14:18:37;12.40;99.90
46319;DHT22;32042;50.916;2.926;2023-04-24T14:21:04;12.20;99.90
46319;DHT22;32042;50.916;2.926;2023-04-24T14:23:31;12.30;99.90
46319;DHT22;32042;50.916;2.926;2023-04-24T14:26:00;12.30;99.90
46319;DHT22;32042;50.916;2.926;2023-04-24T14:28:26;12.30;99.90
46319;DHT22;32042;50.916;2.926;2023-04-24T14:30:52;12.30;99.90
46319;DHT22;32042;50.916;2.926;2023-04-24T14:33:18;12.30;99.90
46319;DHT22;32042;50.916;2.926;2023-04-24T14:35:44;12.40;99.90
46319;DHT22;32042;50.916;2.926;2023-04-24T14:38:10;12.40;99.90
46319;DHT22;32042;50.916;2.926;2023-04-24T14:40:36;12.40;99.90
46319;DHT22;32042;50.916;2.926;2023-04-24T14:43:02;12.30;99.90
46319;DHT22;32042;50.916;2.926;2023-04-24T14:45:28;12.30;99.90
46319;DHT22;32042;50.916;2.926;2023-04-24T14:47:55;12.20;99.90
46319;DHT22;32042;50.916;2.926;2023-04-24T14:50:21;12.10;99.90
46319;DHT22;32042;50.916;2.926;2023-04-24T14:52:47;12.10;99.90
46319;DHT22;32042;50.916;2.926;2023-04-24T14:55:13;12.00;99.90
46319;DHT22;32042;50.916;2.926;2023-04-24T14:57:39;12.00;99.90
46319;DHT22;32042;50.916;2.926;2023-04-24T15:00:06;11.90;99.90
46319;DHT22;32042;50.916;2.926;2023-04-24T15:02:34;11.80;99.90
46319;DHT22;32042;50.916;2.926;2023-04-24T15:05:00;11.80;99.90
46319;DHT22;32042;50.916;2.926;2023-04-24T15:07:26;11.80;99.90
46319;DHT22;32042;50.916;2.926;2023-04-24T15:09:52;11.80;99.90
46319;DHT22;32042;50.916;2.926;2023-04-24T15:12:18;11.80;99.90
46319;DHT22;32042;50.916;2.926;2023-04-24T15:14:43;11.80;99.90
46319;DHT22;32042;50.916;2.926;2023-04-24T15:17:09;11.70;99.90
46319;DHT22;32042;50.916;2.926;2023-04-24T15:19:35;11.70;99.90
46319;DHT22;32042;50.916;2.926;2023-04-24T15:22:00;11.70;99.90
46319;DHT22;32042;50.916;2.926;2023-04-24T15:24:26;11.60;99.90
46319;DHT22;32042;50.916;2.926;2023-04-24T15:26:52;11.50;99.90
46319;DHT22;32042;50.916;2.926;2023-04-24T15:29:18;11.40;99.90
46319;DHT22;32042;50.916;2.926;2023-04-24T15:31:44;11.40;99.90
46319;DHT22;32042;50.916;2.926;2023-04-24T15:34:09;11.30;99.90
46319;DHT22;32042;50.916;2.926;2023-04-24T15:36:35;11.20;99.90
46319;DHT22;32042;50.916;2.926;2023-04-24T15:39:02;11.20;99.90
46319;DHT22;32042;50.916;2.926;2023-04-24T15:41:28;11.20;99.90
46319;DHT22;32042;50.916;2.926;2023-04-24T15:43:53;11.20;99.90
46319;DHT22;32042;50.916;2.926;2023-04-24T15:46:19;11.20;99.90
46319;DHT22;32042;50.916;2.926;2023-04-24T15:48:45;11.20;99.90